createdAt,value
2018-12-18T00:02:42.474Z,102075.71
2018-12-18T00:05:30.478Z,102082.88
2018-12-18T00:07:59.735Z,102079.30
2018-12-18T00:10:47.734Z,102078.17
2018-12-18T00:13:17.090Z,102077.09
2018-12-18T00:15:46.364Z,102078.17
2018-12-18T00:18:15.639Z,102071.02
2018-12-18T00:20:44.922Z,102071.30
2018-12-18T00:23:14.184Z,102074.86
2018-12-18T00:25:43.480Z,102085.02
2018-12-18T00:28:12.744Z,102085.02
2018-12-18T00:30:41.996Z,102089.14
2018-12-18T00:33:11.278Z,102086.66
2018-12-18T00:35:40.539Z,102089.14
2018-12-18T00:38:09.810Z,102091.35
2018-12-18T00:40:39.065Z,102103.98
2018-12-18T00:43:08.333Z,102101.52
2018-12-18T00:45:37.609Z,102096.27
2018-12-18T00:48:06.889Z,102085.56
2018-12-18T00:50:36.147Z,102083.61
2018-12-18T00:53:25.291Z,102088.56
2018-12-18T00:55:54.561Z,102093.23
2018-12-18T00:58:23.892Z,102089.66
2018-12-18T01:00:53.158Z,102092.41
2018-12-18T01:03:22.426Z,102086.36
2018-12-18T01:05:51.687Z,102090.48
2018-12-18T01:08:21.099Z,102091.83
2018-12-18T01:10:50.355Z,102090.20
2018-12-18T01:13:19.624Z,102097.33
2018-12-18T01:15:48.878Z,102094.32
2018-12-18T01:18:18.149Z,102094.32
2018-12-18T01:20:47.405Z,102101.73
2018-12-18T01:23:16.673Z,102104.20
2018-12-18T01:25:45.933Z,102099.23
2018-12-18T01:28:15.220Z,102111.62
2018-12-18T01:30:44.483Z,102122.61
2018-12-18T01:33:13.748Z,102123.95
2018-12-18T01:35:43.018Z,102118.20
2018-12-18T01:38:12.288Z,102113.24
2018-12-18T01:40:41.559Z,102120.92
2018-12-18T01:43:10.824Z,102125.33
2018-12-18T01:45:40.089Z,102120.91
2018-12-18T01:48:09.373Z,102116.79
2018-12-18T01:50:38.640Z,102112.12
2018-12-18T01:53:07.924Z,102106.88
2018-12-18T01:55:37.195Z,102112.66
2018-12-18T01:58:06.467Z,102117.91
2018-12-18T02:00:35.732Z,102109.38
2018-12-18T02:03:05.008Z,102108.28
2018-12-18T02:05:34.260Z,102111.03
2018-12-18T02:08:03.536Z,102111.87
2018-12-18T02:10:32.796Z,102110.49
2018-12-18T02:13:02.069Z,102112.66
2018-12-18T02:15:31.332Z,102119.54
2018-12-18T02:18:00.596Z,102126.13
2018-12-18T02:20:29.847Z,102121.71
2018-12-18T02:22:59.130Z,102122.00
2018-12-18T02:25:28.397Z,102121.74
2018-12-18T02:27:57.697Z,102115.95
2018-12-18T02:30:26.961Z,102119.54
2018-12-18T02:32:56.225Z,102123.67
2018-12-18T02:35:25.492Z,102124.20
2018-12-18T02:38:13.812Z,102127.25
2018-12-18T02:40:43.083Z,102122.58
2018-12-18T02:43:12.371Z,102131.09
2018-12-18T02:45:41.639Z,102130.00
2018-12-18T02:48:10.930Z,102135.50
2018-12-18T02:50:40.194Z,102136.05
2018-12-18T02:53:09.456Z,102138.50
2018-12-18T02:55:38.722Z,102133.55
2018-12-18T02:58:07.990Z,102141.00
2018-12-18T03:00:37.265Z,102143.46
2018-12-18T03:03:06.516Z,102144.58
2018-12-18T03:05:35.896Z,102148.67
2018-12-18T03:08:05.152Z,102148.96
2018-12-18T03:10:34.463Z,102149.76
2018-12-18T03:13:03.719Z,102148.09
2018-12-18T03:15:32.992Z,102142.88
2018-12-18T03:18:02.245Z,102147.27
2018-12-18T03:20:31.516Z,102151.93
2018-12-18T03:23:00.773Z,102152.22
2018-12-18T03:25:31.843Z,102148.09
2018-12-18T03:28:00.204Z,102152.51
2018-12-18T03:30:29.482Z,102146.72
2018-12-18T03:35:48.220Z,102154.97
2018-12-18T03:38:17.497Z,102147.00
2018-12-18T03:40:46.764Z,102150.84
2018-12-18T03:43:16.013Z,102151.67
2018-12-18T03:45:45.303Z,102152.22
2018-12-18T03:48:14.565Z,102156.34
2018-12-18T03:50:43.833Z,102157.72
2018-12-18T03:53:32.697Z,102160.47
2018-12-18T03:56:01.976Z,102163.22
2018-12-18T03:58:31.237Z,102169.81
2018-12-18T04:01:00.506Z,102169.56
2018-12-18T04:03:29.764Z,102171.48
2018-12-18T04:05:59.038Z,102164.89
2018-12-18T04:08:28.757Z,102165.44
2018-12-18T04:10:58.033Z,102161.30
2018-12-18T04:13:27.292Z,102161.84
2018-12-18T04:15:56.563Z,102161.30
2018-12-18T04:18:25.827Z,102168.19
2018-12-18T04:20:55.093Z,102168.19
2018-12-18T04:23:24.351Z,102171.22
2018-12-18T04:25:55.615Z,102165.14
2018-12-18T04:28:24.913Z,102168.73
2018-12-18T04:30:54.172Z,102166.55
2018-12-18T04:33:23.446Z,102172.89
2018-12-18T04:35:52.749Z,102172.05
2018-12-18T04:38:22.012Z,102170.97
2018-12-18T04:40:51.260Z,102180.89
2018-12-18T04:43:20.532Z,102182.27
2018-12-18T04:45:49.792Z,102181.14
2018-12-18T04:48:30.765Z,102181.14
2018-12-18T04:51:00.023Z,102178.67
2018-12-18T04:53:29.301Z,102182.55
2018-12-18T04:55:58.563Z,102182.55
2018-12-18T04:58:27.833Z,102189.97
2018-12-18T05:00:57.116Z,102181.97
2018-12-18T05:03:26.392Z,102183.09
2018-12-18T05:05:55.675Z,102184.18
2018-12-18T05:08:24.923Z,102183.63
2018-12-18T05:10:54.189Z,102188.84
2018-12-18T05:13:23.460Z,102188.84
2018-12-18T05:15:52.724Z,102189.94
2018-12-18T05:18:22.016Z,102191.05
2018-12-18T05:20:51.293Z,102189.11
2018-12-18T05:23:20.553Z,102185.55
2018-12-18T05:25:49.813Z,102180.89
2018-12-18T05:28:19.096Z,102177.84
2018-12-18T05:30:48.358Z,102178.67
2018-12-18T05:33:17.626Z,102176.47
2018-12-18T05:35:46.889Z,102178.42
2018-12-18T05:38:16.160Z,102183.92
2018-12-18T05:40:45.414Z,102186.96
2018-12-18T05:43:14.693Z,102191.62
2018-12-18T05:45:43.948Z,102194.64
2018-12-18T05:48:13.253Z,102197.67
2018-12-18T05:50:42.514Z,102202.34
2018-12-18T05:53:11.783Z,102202.34
2018-12-18T05:55:41.046Z,102200.42
2018-12-18T05:58:10.327Z,102199.34
2018-12-18T06:00:39.582Z,102204.84
2018-12-18T06:03:08.847Z,102207.59
2018-12-18T06:05:38.115Z,102204.55
2018-12-18T06:08:07.387Z,102216.37
2018-12-18T06:10:36.653Z,102208.42
2018-12-18T06:13:05.924Z,102214.72
2018-12-18T06:15:35.175Z,102216.66
2018-12-18T06:18:04.458Z,102235.38
2018-12-18T06:20:53.316Z,102225.74
2018-12-18T06:23:22.607Z,102219.70
2018-12-18T06:25:51.854Z,102219.41
2018-12-18T06:28:21.130Z,102222.45
2018-12-18T06:30:50.389Z,102221.33
2018-12-18T06:33:19.664Z,102217.50
2018-12-18T06:35:48.924Z,102223.00
2018-12-18T06:38:18.253Z,102223.25
2018-12-18T06:40:47.530Z,102229.30
2018-12-18T06:43:16.808Z,102227.92
2018-12-18T06:45:46.072Z,102226.83
2018-12-18T06:48:15.345Z,102228.78
2018-12-18T06:50:44.605Z,102235.91
2018-12-18T06:53:13.883Z,102229.33
2018-12-18T06:55:43.146Z,102229.58
2018-12-18T06:58:12.419Z,102229.33
2018-12-18T07:00:41.696Z,102237.83
2018-12-18T07:03:10.970Z,102233.16
2018-12-18T07:05:40.223Z,102243.88
2018-12-18T07:08:09.494Z,102238.67
2018-12-18T07:10:38.745Z,102238.67
2018-12-18T07:13:08.020Z,102237.00
2018-12-18T07:15:37.276Z,102238.12
2018-12-18T07:18:06.537Z,102240.33
2018-12-18T07:20:35.814Z,102251.03
2018-12-18T07:23:05.079Z,102251.61
2018-12-18T07:25:34.357Z,102248.86
2018-12-18T07:28:23.234Z,102248.86
2018-12-18T07:30:52.499Z,102255.99
2018-12-18T07:33:21.769Z,102262.31
2018-12-18T07:35:51.037Z,102263.69
2018-12-18T07:38:39.308Z,102257.39
2018-12-18T07:41:08.574Z,102254.90
2018-12-18T07:43:37.859Z,102262.04
2018-12-18T07:46:07.128Z,102264.25
2018-12-18T07:48:36.399Z,102270.00
2018-12-18T07:51:05.654Z,102271.66
2018-12-18T07:53:35.443Z,102277.98
2018-12-18T07:56:05.085Z,102283.22
2018-12-18T07:58:34.370Z,102287.61
2018-12-18T08:01:03.627Z,102282.91
2018-12-18T08:03:32.900Z,102285.13
2018-12-18T08:06:02.170Z,102287.33
2018-12-18T08:08:31.445Z,102287.34
2018-12-18T08:11:00.707Z,102281.80
2018-12-18T08:13:29.980Z,102294.73
2018-12-18T08:15:59.255Z,102295.86
2018-12-18T08:18:28.520Z,102294.48
2018-12-18T08:20:57.796Z,102299.95
2018-12-18T08:23:27.053Z,102300.79
2018-12-18T08:25:56.328Z,102292.25
2018-12-18T08:28:25.580Z,102294.20
2018-12-18T08:30:54.854Z,102291.25
2018-12-18T08:33:24.113Z,102292.36
2018-12-18T08:35:53.390Z,102293.15
2018-12-18T08:41:11.031Z,102295.19
2018-12-18T08:43:40.329Z,102296.48
2018-12-18T08:46:10.389Z,102294.00
2018-12-18T08:48:39.802Z,102301.32
2018-12-18T08:51:09.085Z,102299.16
2018-12-18T08:53:38.352Z,102298.77
2018-12-18T08:56:07.628Z,102293.94
2018-12-18T08:58:36.898Z,102293.21
2018-12-18T09:01:06.168Z,102294.19
2018-12-18T09:03:35.460Z,102295.21
2018-12-18T09:06:04.769Z,102293.13
2018-12-18T09:08:34.035Z,102296.63
2018-12-18T09:11:03.315Z,102298.27
2018-12-18T09:13:32.583Z,102301.16
2018-12-18T09:16:01.852Z,102298.47
2018-12-18T09:18:31.113Z,102305.05
2018-12-18T09:21:19.984Z,102303.80
2018-12-18T09:23:49.241Z,102300.89
2018-12-18T09:26:18.514Z,102297.78
2018-12-18T09:28:47.100Z,102295.41
2018-12-18T09:31:35.973Z,102299.88
2018-12-18T09:34:05.374Z,102295.52
2018-12-18T09:36:34.631Z,102289.81
2018-12-18T09:39:23.500Z,102281.88
2018-12-18T09:42:11.507Z,102283.91
2018-12-18T09:44:40.791Z,102285.34
2018-12-18T09:47:10.064Z,102271.86
2018-12-18T09:49:39.336Z,102273.49
2018-12-18T09:52:08.605Z,102266.91
2018-12-18T09:54:37.884Z,102257.84
2018-12-18T09:57:25.895Z,102257.30
2018-12-18T09:59:55.172Z,102245.98
2018-12-18T10:02:24.428Z,102241.80
2018-12-18T10:04:53.699Z,102243.46
2018-12-18T10:07:22.960Z,102239.83
2018-12-18T10:09:52.242Z,102237.59
2018-12-18T10:12:40.231Z,102236.69
2018-12-18T10:15:09.519Z,102236.98
2018-12-18T10:17:38.792Z,102238.34
2018-12-18T10:20:08.117Z,102231.16
2018-12-18T10:22:37.376Z,102238.89
2018-12-18T10:25:06.671Z,102231.48
2018-12-18T10:27:35.923Z,102221.04
2018-12-18T10:30:05.434Z,102210.87
2018-12-18T10:32:34.711Z,102215.30
2018-12-18T10:35:03.963Z,102208.12
2018-12-18T10:37:33.251Z,102205.91
2018-12-18T10:40:02.572Z,102211.95
2018-12-18T10:42:31.836Z,102218.30
2018-12-18T10:45:01.113Z,102217.46
2018-12-18T10:47:30.387Z,102217.45
2018-12-18T10:49:59.649Z,102221.00
2018-12-18T10:52:28.919Z,102220.16
2018-12-18T10:54:58.183Z,102218.52
2018-12-18T10:57:27.457Z,102216.30
2018-12-18T11:00:16.358Z,102223.19
2018-12-18T11:02:45.932Z,102215.17
2018-12-18T11:05:15.200Z,102214.92
2018-12-18T11:07:44.470Z,102208.58
2018-12-18T11:10:13.732Z,102207.50
2018-12-18T11:13:01.753Z,102203.66
2018-12-18T11:15:31.009Z,102208.64
2018-12-18T11:18:00.329Z,102202.83
2018-12-18T11:20:29.649Z,102195.39
2018-12-18T11:22:58.912Z,102203.36
2018-12-18T11:25:28.165Z,102192.87
2018-12-18T11:27:57.502Z,102193.72
2018-12-18T11:35:49.871Z,102167.86
2018-12-18T11:38:19.140Z,102173.66
2018-12-18T11:40:48.396Z,102178.33
2018-12-18T11:43:17.683Z,102172.52
2018-12-18T11:45:46.957Z,102172.81
2018-12-18T11:48:16.243Z,102170.59
2018-12-18T11:50:45.501Z,102169.75
2018-12-18T11:53:14.768Z,102174.98
2018-12-18T11:55:44.099Z,102168.67
2018-12-18T11:58:13.380Z,102159.81
2018-12-18T12:00:49.872Z,102157.58
2018-12-18T12:03:19.146Z,102149.87
2018-12-18T12:05:48.404Z,102153.45
2018-12-18T12:08:17.713Z,102156.20
2018-12-18T12:10:46.982Z,102148.78
2018-12-18T12:13:16.261Z,102150.45
2018-12-18T12:15:45.510Z,102144.09
2018-12-18T12:18:14.773Z,102145.42
2018-12-18T12:20:44.026Z,102141.03
2018-12-18T12:23:13.295Z,102143.49
2018-12-18T12:25:42.564Z,102144.03
2018-12-18T12:28:11.827Z,102144.56
2018-12-18T12:30:41.110Z,102141.48
2018-12-18T12:33:10.380Z,102135.41
2018-12-18T12:35:39.634Z,102136.72
2018-12-18T12:38:08.903Z,102136.72
2018-12-18T12:40:38.151Z,102134.81
2018-12-18T12:43:07.522Z,102130.11
2018-12-18T12:45:36.794Z,102118.50
2018-12-18T12:48:24.813Z,102121.56
2018-12-18T12:50:54.075Z,102117.17
2018-12-18T12:53:23.354Z,102104.48
2018-12-18T12:55:52.616Z,102107.27
2018-12-18T12:58:21.881Z,102103.70
2018-12-18T13:00:51.151Z,102103.97
2018-12-18T13:03:20.418Z,102109.48
2018-12-18T13:05:49.687Z,102107.03
2018-12-18T13:08:19.021Z,102113.67
2018-12-18T13:10:48.295Z,102121.36
2018-12-18T13:13:17.556Z,102124.09
2018-12-18T13:15:46.832Z,102123.47
2018-12-18T13:18:16.086Z,102119.86
2018-12-18T13:20:45.356Z,102124.31
2018-12-18T13:23:14.615Z,102129.85
2018-12-18T13:25:43.898Z,102118.02
2018-12-18T13:28:13.155Z,102115.00
2018-12-18T13:30:42.424Z,102106.27
2018-12-18T13:33:11.697Z,102100.00
2018-12-18T13:35:40.971Z,102090.07
2018-12-18T13:38:10.325Z,102083.23
2018-12-18T13:40:39.584Z,102078.03
2018-12-18T13:43:28.442Z,102070.87
2018-12-18T13:46:17.335Z,102072.54
2018-12-18T13:48:46.599Z,102066.48
2018-12-18T13:51:15.881Z,102059.84
2018-12-18T13:53:45.131Z,102060.92
2018-12-18T13:56:14.408Z,102056.78
2018-12-18T13:58:43.674Z,102061.22
2018-12-18T14:01:13.002Z,102058.21
2018-12-18T14:03:42.259Z,102063.44
2018-12-18T14:06:11.547Z,102059.86
2018-12-18T14:08:40.798Z,102056.84
2018-12-18T14:11:10.068Z,102067.91
2018-12-18T14:13:39.343Z,102070.72
2018-12-18T14:16:08.620Z,102059.47
2018-12-18T14:18:37.876Z,102068.83
2018-12-18T14:21:26.748Z,102076.00
2018-12-18T14:23:56.009Z,102067.45
2018-12-18T14:26:25.286Z,102068.59
2018-12-18T14:28:54.549Z,102065.55
2018-12-18T14:31:23.821Z,102066.09
2018-12-18T14:33:53.088Z,102061.95
2018-12-18T14:36:22.351Z,102059.52
2018-12-18T14:38:51.605Z,102066.19
2018-12-18T14:41:20.880Z,102065.11
2018-12-18T14:43:50.142Z,102058.81
2018-12-18T14:46:19.427Z,102058.00
2018-12-18T14:48:48.680Z,102061.64
2018-12-18T14:51:17.936Z,102061.36
2018-12-18T14:53:47.192Z,102053.12
2018-12-18T14:56:16.501Z,102068.25
2018-12-18T14:58:45.761Z,102069.86
2018-12-18T15:01:15.031Z,102069.33
2018-12-18T15:03:44.296Z,102065.79
2018-12-18T15:06:13.559Z,102058.08
2018-12-18T15:08:42.825Z,102058.62
2018-12-18T15:11:12.090Z,102052.84
2018-12-18T15:13:41.343Z,102052.27
2018-12-18T15:16:10.618Z,102054.23
2018-12-18T15:18:39.874Z,102055.07
2018-12-18T15:21:09.159Z,102051.25
2018-12-18T15:23:38.410Z,102053.46
2018-12-18T15:26:07.677Z,102051.27
2018-12-18T15:28:36.928Z,102048.27
2018-12-18T15:31:06.210Z,102050.48
2018-12-18T15:33:35.521Z,102051.03
2018-12-18T15:36:04.790Z,102053.78
2018-12-18T15:38:34.033Z,102048.52
2018-12-18T15:41:03.297Z,102041.69
2018-12-18T15:43:32.555Z,102047.19
2018-12-18T15:46:01.826Z,102037.02
2018-12-18T15:48:31.099Z,102036.20
2018-12-18T15:51:00.367Z,102031.55
2018-12-18T15:53:29.621Z,102039.02
2018-12-18T15:55:58.891Z,102041.76
2018-12-18T15:58:28.146Z,102045.31
2018-12-18T16:01:16.462Z,102039.00
2018-12-18T16:03:45.728Z,102041.47
2018-12-18T16:06:14.991Z,102051.12
2018-12-18T16:08:44.248Z,102054.70
2018-12-18T16:11:13.517Z,102056.63
2018-12-18T16:13:42.776Z,102063.78
2018-12-18T16:16:12.056Z,102056.90
2018-12-18T16:18:41.307Z,102050.02
2018-12-18T16:21:10.586Z,102047.52
2018-12-18T16:23:39.848Z,102053.86
2018-12-18T16:26:09.212Z,102058.82
2018-12-18T16:28:38.470Z,102050.56
2018-12-18T16:31:07.733Z,102057.45
2018-12-18T16:33:36.992Z,102058.04
2018-12-18T16:36:06.260Z,102047.05
2018-12-18T16:38:35.505Z,102049.27
2018-12-18T16:41:04.766Z,102049.55
2018-12-18T16:43:34.019Z,102051.17
2018-12-18T16:46:03.269Z,102053.94
2018-12-18T16:48:32.564Z,102049.02
2018-12-18T16:51:01.831Z,102038.57
2018-12-18T16:53:31.094Z,102031.70
2018-12-18T16:56:00.361Z,102028.41
2018-12-18T16:58:29.633Z,102033.37
2018-12-18T17:00:58.894Z,102027.33
2018-12-18T17:03:28.166Z,102023.22
2018-12-18T17:05:57.414Z,102016.94
2018-12-18T17:08:26.679Z,102010.10
2018-12-18T17:10:55.934Z,102005.45
2018-12-18T17:13:25.202Z,102003.25
2018-12-18T17:15:54.489Z,102007.37
2018-12-18T17:18:23.740Z,102008.74
2018-12-18T17:20:53.004Z,102009.58
2018-12-18T17:23:22.287Z,102011.55
2018-12-18T17:25:51.537Z,102005.80
2018-12-18T17:28:20.798Z,102003.89
2018-12-18T17:30:50.047Z,102000.34
2018-12-18T17:33:19.307Z,102002.80
2018-12-18T17:35:48.645Z,102004.47
2018-12-18T17:38:17.989Z,102009.44
2018-12-18T17:40:47.426Z,102002.02
2018-12-18T17:45:52.346Z,102001.23
2018-12-18T17:48:21.625Z,102013.34
2018-12-18T17:50:50.871Z,102012.80
2018-12-18T17:53:20.139Z,102015.83
2018-12-18T17:55:49.386Z,102017.20
2018-12-18T17:58:18.664Z,102021.88
2018-12-18T18:00:47.917Z,102014.20
2018-12-18T18:03:17.285Z,102009.25
2018-12-18T18:05:46.549Z,102009.83
2018-12-18T18:08:15.811Z,102005.16
2018-12-18T18:10:45.061Z,102005.44
2018-12-18T18:13:14.322Z,102007.39
2018-12-18T18:15:43.572Z,102010.67
2018-12-18T18:18:12.844Z,102010.42
2018-12-18T18:20:42.099Z,102016.45
2018-12-18T18:23:11.471Z,102011.25
2018-12-18T18:25:40.722Z,102018.11
2018-12-18T18:28:09.979Z,102016.45
2018-12-18T18:30:58.830Z,102014.81
2018-12-18T18:33:28.139Z,102013.44
2018-12-18T18:35:57.384Z,102018.39
2018-12-18T18:38:26.695Z,102006.31
2018-12-18T18:40:55.966Z,102007.14
2018-12-18T18:43:25.237Z,102009.63
2018-12-18T18:45:54.487Z,102010.73
2018-12-18T18:48:23.780Z,102006.35
2018-12-18T18:50:53.827Z,102011.55
2018-12-18T18:53:23.211Z,102004.70
2018-12-18T18:55:52.472Z,101998.12
2018-12-18T18:58:21.739Z,101998.95
2018-12-18T19:00:51.050Z,101994.28
2018-12-18T19:03:20.327Z,101994.02
2018-12-18T19:05:49.586Z,101982.48
2018-12-18T19:08:18.846Z,101973.97
2018-12-18T19:10:48.098Z,101973.98
2018-12-18T19:13:17.379Z,101968.78
2018-12-18T19:15:46.630Z,101957.50
2018-12-18T19:18:15.903Z,101947.92
2018-12-18T19:20:45.162Z,101941.87
2018-12-18T19:23:14.421Z,101937.48
2018-12-18T19:25:43.699Z,101930.91
2018-12-18T19:28:13.027Z,101928.44
2018-12-18T19:30:42.231Z,101930.09
2018-12-18T19:33:36.700Z,101924.85
2018-12-18T19:36:01.250Z,101921.86
2018-12-18T19:38:30.532Z,101915.80
2018-12-18T19:40:59.789Z,101909.51
2018-12-18T19:43:29.054Z,101912.80
2018-12-18T19:45:58.315Z,101905.39
2018-12-18T19:51:16.909Z,101909.22
2018-12-18T19:53:46.187Z,101902.94
2018-12-18T19:56:15.437Z,101888.13
2018-12-18T19:58:44.738Z,101880.73
2018-12-18T20:01:14.000Z,101882.92
2018-12-18T20:03:43.251Z,101878.26
2018-12-18T20:06:12.521Z,101880.17
2018-12-18T20:08:41.768Z,101873.58
2018-12-18T20:11:11.039Z,101868.66
2018-12-18T20:13:40.292Z,101867.00
2018-12-18T20:16:09.559Z,101859.34
2018-12-18T20:18:38.806Z,101859.88
2018-12-18T20:21:08.069Z,101857.97
2018-12-18T20:23:37.340Z,101853.86
2018-12-18T20:28:42.194Z,101840.94
2018-12-18T20:31:30.516Z,101838.73
2018-12-18T20:33:59.772Z,101837.64
2018-12-18T20:36:29.031Z,101834.63
2018-12-18T20:38:58.287Z,101820.64
2018-12-18T20:41:27.566Z,101816.80
2018-12-18T20:43:56.823Z,101816.26
2018-12-18T20:46:26.091Z,101815.45
2018-12-18T20:48:55.362Z,101802.30
2018-12-18T20:51:24.634Z,101806.95
2018-12-18T20:53:53.892Z,101803.37
2018-12-18T20:56:23.179Z,101799.30
2018-12-18T20:58:52.421Z,101800.92
2018-12-18T21:01:21.691Z,101799.00
2018-12-18T21:03:50.948Z,101799.54
2018-12-18T21:06:20.337Z,101790.77
2018-12-18T21:08:49.725Z,101790.80
2018-12-18T21:11:19.121Z,101788.59
2018-12-18T21:13:48.524Z,101783.12
2018-12-18T21:16:17.925Z,101776.81
2018-12-18T21:18:47.316Z,101772.98
2018-12-18T21:21:16.696Z,101765.31
2018-12-18T21:23:46.089Z,101762.86
2018-12-18T21:26:15.555Z,101762.30
2018-12-18T21:28:44.933Z,101755.16
2018-12-18T21:31:14.382Z,101755.19
2018-12-18T21:33:43.804Z,101754.63
2018-12-18T21:36:13.180Z,101761.46
2018-12-18T21:38:42.565Z,101759.83
2018-12-18T21:41:11.956Z,101759.82
2018-12-18T21:43:41.411Z,101758.98
2018-12-18T21:46:10.800Z,101762.00
2018-12-18T21:48:40.208Z,101768.30
2018-12-18T21:51:09.573Z,101762.56
2018-12-18T21:53:38.969Z,101763.36
2018-12-18T21:56:08.358Z,101763.64
2018-12-18T21:58:37.771Z,101760.08
2018-12-18T22:01:07.153Z,101760.34
2018-12-18T22:06:12.293Z,101755.15
2018-12-18T22:08:41.687Z,101746.09
2018-12-18T22:11:11.062Z,101752.66
2018-12-18T22:13:40.461Z,101747.73
2018-12-18T22:16:09.846Z,101745.52
2018-12-18T22:18:39.249Z,101741.44
2018-12-18T22:21:08.634Z,101747.45
2018-12-18T22:23:38.022Z,101741.68
2018-12-18T22:26:07.364Z,101739.51
2018-12-18T22:28:36.637Z,101735.66
2018-12-18T22:31:05.898Z,101727.18
2018-12-18T22:33:35.166Z,101726.08
2018-12-18T22:36:04.424Z,101724.98
2018-12-18T22:38:33.687Z,101720.63
2018-12-18T22:41:02.935Z,101718.95
2018-12-18T22:43:32.235Z,101716.77
2018-12-18T22:46:01.487Z,101703.91
2018-12-18T22:48:30.763Z,101692.41
2018-12-18T22:51:00.016Z,101692.14
2018-12-18T22:53:29.298Z,101688.55
2018-12-18T22:55:58.550Z,101694.30
2018-12-18T22:58:27.824Z,101685.80
2018-12-18T23:01:15.799Z,101682.83
2018-12-18T23:03:45.076Z,101680.63
2018-12-18T23:06:14.391Z,101679.80
2018-12-18T23:08:50.036Z,101670.50
2018-12-18T23:11:13.822Z,101662.58
2018-12-18T23:13:43.122Z,101655.45
2018-12-18T23:16:12.379Z,101652.70
2018-12-18T23:18:41.641Z,101641.75
2018-12-18T23:21:10.914Z,101630.02
2018-12-18T23:23:40.168Z,101633.29
2018-12-18T23:26:28.495Z,101627.27
2018-12-18T23:28:57.746Z,101618.52
2018-12-18T23:31:27.010Z,101607.56
2018-12-18T23:33:56.273Z,101599.63
2018-12-18T23:36:25.543Z,101594.14
2018-12-18T23:38:57.092Z,101597.16
2018-12-18T23:41:24.984Z,101602.91
2018-12-18T23:43:54.220Z,101602.89
2018-12-18T23:46:23.513Z,101594.98
2018-12-18T23:48:52.769Z,101579.11
2018-12-18T23:51:22.035Z,101580.48
2018-12-18T23:53:51.292Z,101577.75
2018-12-18T23:56:20.580Z,101579.11
2018-12-18T23:58:49.839Z,101594.97
